Time;durP1;ratioP1;P1;durP2;ratioP2;P2;SDS_P1;SDS_P2;PMS_P1;PMS_P2;Temp;Humidity;BMP_temperature;BMP_pressure;BME280_temperature;BME280_humidity;BME280_pressure;Samples;Min_cycle;Max_cycle;Signal;HPM_P1;HPM_P2
2021/03/07 00:00:22;;;;;;;8.15;1.98;;;27.30;48.90;;;;;;5002699;28;20037;-69
2021/03/07 00:02:50;;;;;;;6.45;1.50;;;27.50;49.80;;;;;;4997116;28;20572;-68
2021/03/07 00:05:19;;;;;;;7.95;2.30;;;27.20;48.50;;;;;;5003261;28;20034;-70
2021/03/07 00:07:48;;;;;;;7.45;2.05;;;27.60;48.10;;;;;;5001312;28;20132;-67
2021/03/07 00:10:19;;;;;;;6.70;1.35;;;27.90;48.00;;;;;;5002548;28;20029;-69
2021/03/07 00:12:49;;;;;;;6.63;2.03;;;27.20;49.80;;;;;;5001808;28;20692;-68
2021/03/07 00:15:18;;;;;;;6.20;1.25;;;27.60;49.00;;;;;;5002134;28;20820;-67
2021/03/07 00:17:47;;;;;;;6.80;1.27;;;28.00;47.30;;;;;;5001857;28;20034;-67
2021/03/07 00:20:17;;;;;;;4.78;1.50;;;28.30;47.10;;;;;;5001749;28;20056;-67
2021/03/07 00:22:44;;;;;;;10.38;2.17;;;27.70;47.50;;;;;;4999975;28;20477;-67
2021/03/07 00:25:13;;;;;;;6.47;1.83;;;27.90;48.40;;;;;;5002144;28;20043;-68
2021/03/07 00:27:41;;;;;;;8.27;1.90;;;28.30;46.60;;;;;;5000950;28;20034;-67
2021/03/07 00:30:11;;;;;;;6.57;2.33;;;28.60;45.60;;;;;;5000517;28;20485;-68
2021/03/07 00:32:39;;;;;;;9.48;2.30;;;29.10;45.60;;;;;;4999405;28;20569;-68
2021/03/07 00:35:08;;;;;;;5.80;2.30;;;29.20;45.60;;;;;;5001596;28;20057;-67
2021/03/07 00:37:36;;;;;;;7.30;1.52;;;28.90;44.10;;;;;;5000624;28;20176;-68
2021/03/07 00:40:08;;;;;;;8.15;1.65;;;27.70;46.40;;;;;;4999322;28;20099;-69
2021/03/07 00:42:36;;;;;;;8.90;2.10;;;26.80;48.70;;;;;;4997390;28;20120;-68
2021/03/07 00:45:07;;;;;;;9.75;2.42;;;26.60;51.50;;;;;;5001556;28;20420;-68
2021/03/07 00:47:34;;;;;;;9.65;3.55;;;27.00;49.20;;;;;;4999577;28;20057;-69
2021/03/07 00:50:07;;;;;;;9.98;1.92;;;26.90;48.90;;;;;;5001463;28;20472;-67
2021/03/07 00:52:34;;;;;;;9.23;2.38;;;26.90;48.90;;;;;;4999189;28;20135;-68
2021/03/07 00:55:01;;;;;;;9.13;2.60;;;26.60;49.10;;;;;;5001211;28;20117;-68
2021/03/07 00:57:29;;;;;;;9.98;2.33;;;27.00;49.50;;;;;;4999787;28;20030;-68
2021/03/07 00:59:56;;;;;;;8.02;1.70;;;27.50;49.80;;;;;;5000127;28;20026;-68
2021/03/07 01:02:25;;;;;;;6.18;1.80;;;28.30;46.30;;;;;;5000653;28;20048;-67
2021/03/07 01:04:53;;;;;;;5.55;2.00;;;28.90;45.90;;;;;;5001425;28;20018;-69
2021/03/07 01:07:22;;;;;;;6.30;1.83;;;29.10;45.20;;;;;;4999305;28;20515;-68
2021/03/07 01:09:49;;;;;;;4.78;2.22;;;29.20;45.80;;;;;;5001776;28;20037;-70
2021/03/07 01:12:17;;;;;;;4.32;1.95;;;29.60;44.40;;;;;;5000389;28;20046;-68
2021/03/07 01:14:44;;;;;;;4.70;2.08;;;29.50;43.60;;;;;;5001546;28;20057;-69
2021/03/07 01:17:11;;;;;;;7.05;3.20;;;30.00;42.80;;;;;;5000416;28;20022;-68
2021/03/07 01:19:39;;;;;;;5.15;2.70;;;29.70;42.20;;;;;;4999870;28;21426;-69
2021/03/07 01:22:07;;;;;;;7.78;2.47;;;29.70;42.20;;;;;;4999170;28;20018;-69
2021/03/07 01:24:35;;;;;;;7.05;2.72;;;29.90;44.20;;;;;;5000266;28;20472;-69
2021/03/07 01:27:03;;;;;;;6.45;2.40;;;30.00;43.20;;;;;;4998485;28;20030;-70
2021/03/07 01:29:31;;;;;;;7.53;2.15;;;30.00;42.30;;;;;;4999834;28;20053;-68
2021/03/07 01:32:00;;;;;;;7.50;2.83;;;30.20;41.40;;;;;;4999455;28;20124;-69
2021/03/07 01:34:27;;;;;;;5.45;2.75;;;28.90;42.70;;;;;;4999556;28;20365;-68
2021/03/07 01:36:54;;;;;;;6.32;2.65;;;28.20;44.80;;;;;;4999909;28;20404;-69
2021/03/07 01:39:22;;;;;;;5.90;2.15;;;27.80;46.40;;;;;;4998746;28;20112;-68
2021/03/07 01:41:50;;;;;;;7.63;2.47;;;27.60;45.70;;;;;;5000064;28;20108;-67
2021/03/07 01:44:18;;;;;;;8.10;2.70;;;28.00;47.20;;;;;;4995311;28;20069;-68
2021/03/07 01:46:46;;;;;;;7.75;2.78;;;28.60;46.10;;;;;;4998202;28;20045;-67
2021/03/07 01:49:14;;;;;;;8.07;3.20;;;28.80;43.50;;;;;;4997982;28;20178;-68
2021/03/07 01:51:41;;;;;;;6.90;2.80;;;28.50;44.70;;;;;;4998607;28;20092;-67
2021/03/07 01:54:09;;;;;;;7.88;3.00;;;27.80;45.40;;;;;;4999143;28;20032;-68
2021/03/07 01:56:38;;;;;;;6.15;3.53;;;28.10;46.70;;;;;;5000675;28;20026;-68
2021/03/07 01:59:06;;;;;;;7.22;2.67;;;28.20;46.10;;;;;;5003152;28;20025;-69
2021/03/07 02:01:34;;;;;;;7.22;2.97;;;28.70;45.40;;;;;;5004854;28;20037;-68
2021/03/07 02:04:01;;;;;;;6.72;2.75;;;29.60;44.00;;;;;;5000539;28;20117;-71
2021/03/07 02:06:29;;;;;;;8.15;2.95;;;29.20;44.00;;;;;;5003742;28;20191;-69
2021/03/07 02:08:56;;;;;;;8.18;3.75;;;28.30;44.30;;;;;;5002182;28;20345;-69
2021/03/07 02:11:23;;;;;;;5.65;2.25;;;27.80;45.80;;;;;;5004834;28;20042;-68
2021/03/07 02:13:51;;;;;;;6.93;2.90;;;28.50;47.90;;;;;;5003663;28;20087;-68
2021/03/07 02:16:22;;;;;;;4.20;2.45;;;29.60;43.50;;;;;;5004892;28;20049;-68
2021/03/07 02:18:52;;;;;;;9.55;2.90;;;29.80;42.70;;;;;;5003295;28;20458;-69
2021/03/07 02:21:24;;;;;;;7.82;3.10;;;29.80;42.90;;;;;;5002429;28;20091;-68
2021/03/07 02:24:13;;;;;;;7.47;2.30;;;29.00;44.10;;;;;;5001112;28;20036;-68
2021/03/07 02:26:51;;;;;;;8.68;3.85;;;28.80;45.50;;;;;;5001573;28;20103;-69
2021/03/07 02:29:21;;;;;;;7.32;2.72;;;29.20;44.20;;;;;;5002702;28;20061;-68
2021/03/07 02:31:55;;;;;;;9.63;2.60;;;29.50;43.50;;;;;;5002532;28;20046;-69
2021/03/07 02:34:35;;;;;;;5.38;2.38;;;30.00;43.20;;;;;;4999968;28;20041;-71
2021/03/07 02:37:08;;;;;;;6.00;2.35;;;29.60;41.90;;;;;;5002856;28;20037;-68
2021/03/07 02:39:39;;;;;;;5.53;1.75;;;29.70;43.70;;;;;;5003566;28;20022;-69
2021/03/07 02:42:31;;;;;;;7.05;2.95;;;30.80;42.00;;;;;;5003165;28;20026;-69
2021/03/07 02:45:09;;;;;;;4.07;2.30;;;30.90;39.60;;;;;;5000296;28;20056;-67
2021/03/07 02:47:38;;;;;;;4.78;1.92;;;30.80;40.00;;;;;;5002567;28;20052;-69
2021/03/07 02:50:30;;;;;;;6.05;1.73;;;30.60;40.60;;;;;;5003891;28;20033;-67
2021/03/07 02:53:06;;;;;;;4.80;2.72;;;30.80;39.60;;;;;;4997270;28;20092;-71
2021/03/07 02:55:37;;;;;;;5.15;1.98;;;30.50;40.90;;;;;;5000556;28;20033;-68
2021/03/07 02:58:08;;;;;;;7.40;3.17;;;30.50;41.80;;;;;;5000092;28;20022;-71
2021/03/07 03:00:37;;;;;;;7.55;2.85;;;30.40;41.70;;;;;;5001133;28;20014;-68
2021/03/07 03:03:10;;;;;;;7.00;2.05;;;29.70;42.80;;;;;;5001631;28;20030;-68
2021/03/07 03:05:38;;;;;;;6.50;1.90;;;29.40;42.50;;;;;;5001574;28;20106;-68
2021/03/07 03:08:07;;;;;;;6.57;2.65;;;29.00;44.30;;;;;;5001154;28;20071;-69
2021/03/07 03:10:36;;;;;;;8.73;2.38;;;29.60;43.30;;;;;;5002643;28;20025;-69
2021/03/07 03:13:05;;;;;;;5.10;2.40;;;30.40;41.40;;;;;;5001005;28;20030;-68
2021/03/07 03:15:33;;;;;;;5.63;2.10;;;30.50;42.10;;;;;;5002654;28;20741;-68
2021/03/07 03:18:01;;;;;;;4.90;2.13;;;31.10;43.30;;;;;;5001028;28;20487;-68
2021/03/07 03:20:30;;;;;;;8.48;2.33;;;30.90;40.60;;;;;;4999934;28;20489;-68
2021/03/07 03:22:58;;;;;;;7.05;1.80;;;31.00;40.10;;;;;;4998724;28;20064;-69
2021/03/07 03:25:25;;;;;;;5.57;1.60;;;30.80;40.70;;;;;;4999765;28;20092;-69
2021/03/07 03:27:57;;;;;;;4.38;1.70;;;30.80;42.20;;;;;;4999611;28;20112;-68
2021/03/07 03:30:25;;;;;;;6.63;1.80;;;30.80;40.70;;;;;;4999841;28;20026;-70
2021/03/07 03:32:53;;;;;;;6.60;2.03;;;30.70;41.00;;;;;;4997009;28;20128;-67
2021/03/07 03:35:21;;;;;;;4.78;1.70;;;30.60;41.50;;;;;;5001394;28;20507;-68
2021/03/07 03:37:50;;;;;;;7.72;2.63;;;30.40;41.40;;;;;;4999951;28;20042;-67
2021/03/07 03:40:26;;;;;;;8.68;2.67;;;29.70;43.10;;;;;;5001963;28;20729;-68
2021/03/07 03:42:59;;;;;;;8.10;2.28;;;30.20;43.60;;;;;;5000921;28;20057;-67
2021/03/07 03:45:28;;;;;;;5.10;2.20;;;30.70;41.00;;;;;;5001756;28;20057;-67
2021/03/07 03:48:04;;;;;;;4.78;1.40;;;30.50;41.10;;;;;;4999651;28;20520;-68
2021/03/07 03:50:32;;;;;;;4.57;2.05;;;30.50;40.50;;;;;;5001965;28;20041;-69
2021/03/07 03:53:02;;;;;;;6.65;1.67;;;30.80;41.20;;;;;;4996693;28;20147;-67
2021/03/07 03:55:31;;;;;;;6.93;2.38;;;31.10;41.20;;;;;;5000784;28;20049;-71
2021/03/07 03:58:04;;;;;;;8.75;1.70;;;31.80;40.00;;;;;;4996587;28;20038;-68
2021/03/07 04:00:37;;;;;;;7.07;1.58;;;31.70;39.50;;;;;;5001507;28;20064;-68
2021/03/07 04:03:06;;;;;;;4.63;1.92;;;31.20;41.10;;;;;;4999946;28;20072;-68
2021/03/07 04:05:35;;;;;;;7.55;1.85;;;31.20;39.70;;;;;;5001816;28;20040;-68
2021/03/07 04:08:05;;;;;;;5.82;1.75;;;31.40;40.70;;;;;;4999117;28;20495;-66
2021/03/07 04:10:32;;;;;;;7.95;1.48;;;31.40;40.20;;;;;;5001014;28;20141;-68
2021/03/07 04:13:01;;;;;;;5.72;1.65;;;31.60;39.50;;;;;;4999393;28;20037;-66
2021/03/07 04:15:29;;;;;;;7.80;2.10;;;31.40;39.80;;;;;;5001661;28;20040;-66
2021/03/07 04:17:58;;;;;;;3.65;1.70;;;31.60;39.40;;;;;;5000069;28;20053;-67
2021/03/07 04:20:29;;;;;;;18.85;12.02;;;31.60;40.00;;;;;;5002857;28;20030;-67
2021/03/07 04:22:57;;;;;;;6.70;1.90;;;32.00;39.50;;;;;;4999992;28;20239;-66
2021/03/07 04:25:24;;;;;;;6.50;1.73;;;32.00;38.90;;;;;;5001303;28;20362;-67
2021/03/07 04:27:52;;;;;;;10.75;2.03;;;31.60;39.00;;;;;;4999039;28;20040;-70
2021/03/07 04:30:20;;;;;;;6.32;1.77;;;31.20;39.70;;;;;;5002258;28;20076;-67
2021/03/07 04:32:48;;;;;;;5.45;1.63;;;31.30;39.60;;;;;;5000355;28;20041;-67
2021/03/07 04:35:17;;;;;;;4.57;1.70;;;31.20;39.70;;;;;;5014219;28;20088;-70
2021/03/07 04:37:45;;;;;;;6.28;1.50;;;31.10;40.50;;;;;;4999478;28;20042;-67
2021/03/07 04:40:13;;;;;;;3.78;1.25;;;31.40;40.30;;;;;;5001425;28;20041;-68
2021/03/07 04:42:42;;;;;;;6.43;1.40;;;31.30;40.00;;;;;;4998610;28;20022;-67
2021/03/07 04:45:13;;;;;;;6.20;1.27;;;31.10;39.80;;;;;;4999626;28;20501;-67
2021/03/07 04:47:43;;;;;;;5.13;1.83;;;31.10;39.60;;;;;;5000041;28;20171;-67
2021/03/07 04:50:12;;;;;;;9.68;2.53;;;31.60;39.40;;;;;;5001045;28;20052;-66
2021/03/07 04:52:40;;;;;;;3.35;1.45;;;31.40;39.40;;;;;;5000163;28;20080;-67
2021/03/07 04:55:09;;;;;;;7.22;1.35;;;31.20;40.60;;;;;;5001328;28;20061;-67
2021/03/07 04:57:36;;;;;;;7.88;2.33;;;31.00;41.00;;;;;;4999556;28;20846;-68
2021/03/07 05:00:06;;;;;;;4.72;1.65;;;30.80;41.00;;;;;;5001505;28;20042;-69
2021/03/07 05:02:34;;;;;;;4.82;1.50;;;30.70;42.10;;;;;;5000913;28;20065;-68
2021/03/07 05:05:02;;;;;;;5.38;1.70;;;30.70;41.10;;;;;;5000390;28;20030;-69
2021/03/07 05:07:29;;;;;;;7.00;1.35;;;30.80;41.10;;;;;;5000439;28;20411;-68
2021/03/07 05:09:56;;;;;;;7.00;1.75;;;31.30;41.90;;;;;;4998851;28;20050;-71
2021/03/07 05:12:24;;;;;;;7.40;2.22;;;31.40;40.20;;;;;;4999101;28;20088;-69
2021/03/07 05:14:52;;;;;;;4.63;1.60;;;31.50;39.20;;;;;;5000594;28;20329;-68
2021/03/07 05:17:24;;;;;;;5.68;1.75;;;31.50;40.80;;;;;;4998643;28;20047;-67
2021/03/07 05:19:52;;;;;;;7.65;1.58;;;31.70;39.30;;;;;;5001204;28;20033;-68
2021/03/07 05:22:19;;;;;;;8.23;2.08;;;31.50;40.30;;;;;;4997799;28;20603;-69
2021/03/07 05:24:46;;;;;;;5.82;1.40;;;31.10;40.30;;;;;;5001238;28;20119;-68
2021/03/07 05:27:14;;;;;;;6.15;1.98;;;31.10;41.50;;;;;;4999921;28;20033;-67
2021/03/07 05:29:41;;;;;;;6.78;1.60;;;30.70;40.40;;;;;;5004504;28;20025;-70
2021/03/07 05:32:10;;;;;;;7.35;2.17;;;30.50;41.40;;;;;;5003352;28;20050;-68
2021/03/07 05:34:37;;;;;;;6.75;1.63;;;30.60;42.00;;;;;;5004633;28;20389;-68
2021/03/07 05:37:05;;;;;;;6.55;1.60;;;30.80;41.70;;;;;;5002712;28;21728;-69
2021/03/07 05:39:32;;;;;;;4.55;1.13;;;30.90;41.30;;;;;;5004700;28;20057;-68
2021/03/07 05:42:00;;;;;;;6.13;1.30;;;30.50;41.40;;;;;;5004303;28;20037;-66
2021/03/07 05:44:29;;;;;;;4.90;1.60;;;30.50;41.50;;;;;;5003845;28;20061;-69
2021/03/07 05:46:56;;;;;;;8.90;1.58;;;30.40;41.70;;;;;;5002420;28;20100;-68
2021/03/07 05:49:24;;;;;;;5.72;1.67;;;30.60;40.60;;;;;;5004679;28;20034;-71
2021/03/07 05:51:52;;;;;;;14.27;1.88;;;30.50;41.70;;;;;;5004460;28;20505;-70
2021/03/07 05:54:20;;;;;;;9.95;2.03;;;30.50;41.40;;;;;;5003319;28;20030;-67
2021/03/07 05:56:52;;;;;;;6.25;1.95;;;30.30;44.90;;;;;;5004002;28;20031;-68
2021/03/07 05:59:20;;;;;;;5.30;1.58;;;30.00;46.20;;;;;;5003477;28;20026;-67
2021/03/07 06:01:48;;;;;;;7.43;1.90;;;30.10;46.10;;;;;;5004372;28;20469;-68
2021/03/07 06:04:15;;;;;;;6.32;1.67;;;30.10;46.40;;;;;;5003965;28;20213;-69
2021/03/07 06:06:43;;;;;;;7.05;2.08;;;29.60;47.00;;;;;;5001533;28;20022;-69
2021/03/07 06:09:29;;;;;;;7.10;1.77;;;29.60;47.50;;;;;;5001332;28;20485;-67
2021/03/07 06:11:59;;;;;;;8.45;2.35;;;29.20;48.60;;;;;;5002838;28;20096;-68
2021/03/07 06:14:28;;;;;;;7.93;1.90;;;29.00;49.60;;;;;;5002057;28;20034;-67
2021/03/07 06:17:15;;;;;;;10.98;2.40;;;28.90;49.70;;;;;;5003255;28;20046;-67
2021/03/07 06:20:01;;;;;;;7.47;2.38;;;28.70;50.30;;;;;;5002955;28;20079;-67
2021/03/07 06:22:30;;;;;;;7.40;2.38;;;28.10;51.10;;;;;;5000641;28;20483;-70
2021/03/07 06:24:58;;;;;;;7.53;1.98;;;27.80;52.30;;;;;;5003984;28;20844;-68
2021/03/07 06:27:27;;;;;;;8.95;2.60;;;27.60;52.60;;;;;;5001555;28;20034;-69
2021/03/07 06:30:10;;;;;;;7.05;2.17;;;27.60;52.90;;;;;;5003854;28;20040;-67
2021/03/07 06:32:39;;;;;;;6.22;1.70;;;27.70;52.80;;;;;;5002267;28;20140;-66
2021/03/07 06:35:12;;;;;;;9.02;2.28;;;27.70;52.20;;;;;;5001929;28;20260;-68
2021/03/07 06:38:04;;;;;;;9.32;2.30;;;27.60;52.80;;;;;;5001252;28;20019;-68
2021/03/07 06:40:37;;;;;;;9.38;2.22;;;27.50;53.10;;;;;;5001910;28;20472;-66
2021/03/07 06:43:18;;;;;;;10.30;1.90;;;27.30;53.40;;;;;;5001605;28;20030;-66
2021/03/07 06:45:46;;;;;;;6.70;1.77;;;27.30;53.70;;;;;;4999819;28;20128;-68
2021/03/07 06:48:14;;;;;;;9.90;2.60;;;27.20;53.80;;;;;;4998465;28;20037;-69
2021/03/07 06:51:00;;;;;;;11.80;3.45;;;27.10;54.10;;;;;;5001146;28;20038;-68
2021/03/07 06:53:38;;;;;;;8.02;2.95;;;26.90;54.30;;;;;;4998878;28;20045;-69
2021/03/07 06:56:06;;;;;;;6.47;2.08;;;26.80;54.90;;;;;;5003223;28;20022;-69
2021/03/07 06:58:34;;;;;;;5.43;2.05;;;26.60;55.30;;;;;;5000597;28;20619;-67
2021/03/07 07:01:01;;;;;;;7.82;1.83;;;26.50;55.80;;;;;;5002709;28;20030;-67
2021/03/07 07:03:31;;;;;;;8.20;2.55;;;26.50;55.90;;;;;;5001931;28;20026;-67
2021/03/07 07:05:59;;;;;;;7.63;3.33;;;26.50;55.90;;;;;;5004341;28;20483;-67
2021/03/07 07:08:47;;;;;;;7.82;2.05;;;26.50;55.80;;;;;;5001791;28;20479;-68
2021/03/07 07:11:15;;;;;;;9.15;2.58;;;26.50;55.80;;;;;;5001577;28;20034;-67
2021/03/07 07:13:46;;;;;;;8.70;1.92;;;26.60;56.00;;;;;;5001991;28;20038;-67
2021/03/07 07:16:15;;;;;;;9.35;2.13;;;26.60;55.70;;;;;;5003835;28;20548;-68
2021/03/07 07:18:44;;;;;;;6.45;1.48;;;26.50;56.00;;;;;;5002064;28;20034;-68
2021/03/07 07:21:15;;;;;;;8.25;1.50;;;26.50;56.10;;;;;;5004220;28;20026;-69
2021/03/07 07:23:42;;;;;;;7.60;2.05;;;26.50;56.00;;;;;;5000972;28;20036;-68
2021/03/07 07:26:10;;;;;;;6.32;1.70;;;26.40;56.20;;;;;;5003694;28;20038;-69
2021/03/07 07:28:38;;;;;;;7.60;1.38;;;26.30;56.50;;;;;;5000153;28;20034;-68
2021/03/07 07:31:11;;;;;;;6.38;1.90;;;26.20;56.90;;;;;;5003966;28;20056;-69
2021/03/07 07:33:59;;;;;;;10.32;2.58;;;26.20;57.10;;;;;;5001842;28;20046;-67
2021/03/07 07:36:32;;;;;;;12.15;3.60;;;26.10;57.00;;;;;;5002252;28;20034;-68
2021/03/07 07:39:01;;;;;;;10.32;2.03;;;26.00;57.30;;;;;;5001545;28;20076;-68
2021/03/07 07:41:36;;;;;;;8.50;1.95;;;25.80;58.00;;;;;;5003349;28;20061;-67
2021/03/07 07:44:10;;;;;;;10.27;2.17;;;25.60;58.50;;;;;;5001160;28;20142;-68
2021/03/07 07:46:58;;;;;;;11.55;3.28;;;25.60;58.70;;;;;;5003349;28;20041;-67
2021/03/07 07:49:39;;;;;;;8.57;2.25;;;25.40;59.10;;;;;;5001198;28;20030;-68
2021/03/07 07:52:35;;;;;;;11.15;2.35;;;25.30;59.50;;;;;;5002250;28;20444;-70
2021/03/07 07:55:11;;;;;;;9.35;2.25;;;25.10;59.70;;;;;;4993779;28;20068;-69
2021/03/07 07:57:42;;;;;;;;;;;25.10;59.80;;;;;;5002049;28;20590;-69
2021/03/07 08:00:16;;;;;;;8.93;2.00;;;25.00;60.10;;;;;;5002096;28;20272;-68
2021/03/07 08:02:57;;;;;;;11.68;2.67;;;24.90;61.10;;;;;;5001407;28;20030;-68
2021/03/07 08:05:26;;;;;;;7.63;2.60;;;24.80;60.90;;;;;;5001416;28;20091;-68
2021/03/07 08:08:04;;;;;;;8.18;2.35;;;24.70;61.10;;;;;;5000780;28;20030;-69
2021/03/07 08:10:41;;;;;;;13.18;2.90;;;24.60;61.30;;;;;;5001548;28;20081;-67
2021/03/07 08:13:35;;;;;;;12.88;4.35;;;24.60;61.40;;;;;;5000256;28;20052;-68
2021/03/07 08:16:06;;;;;;;8.35;3.88;;;24.60;61.60;;;;;;5002165;28;20547;-68
2021/03/07 08:18:57;;;;;;;8.25;2.40;;;24.50;61.90;;;;;;5000892;28;20121;-68
2021/03/07 08:21:25;;;;;;;12.70;2.60;;;24.50;62.20;;;;;;5002148;28;20095;-70
2021/03/07 08:23:59;;;;;;;10.20;2.92;;;24.40;62.60;;;;;;5000343;28;20022;-72
2021/03/07 08:26:48;;;;;;;7.55;2.85;;;24.30;62.70;;;;;;5001688;28;20037;-66
2021/03/07 08:29:40;;;;;;;9.95;2.35;;;24.20;63.00;;;;;;5000610;28;20603;-68
2021/03/07 08:32:33;;;;;;;8.35;2.85;;;24.10;63.30;;;;;;5001554;28;20041;-67
2021/03/07 08:35:09;;;;;;;12.27;2.40;;;24.10;63.60;;;;;;4999990;28;20037;-69
2021/03/07 08:37:37;;;;;;;9.35;2.80;;;24.00;63.90;;;;;;4999255;28;20232;-70
2021/03/07 08:40:30;;;;;;;9.27;3.08;;;23.90;64.20;;;;;;5002567;28;20535;-67
2021/03/07 08:43:17;;;;;;;10.82;2.53;;;23.80;64.40;;;;;;5000752;28;20032;-69
2021/03/07 08:46:03;;;;;;;9.57;2.70;;;23.80;64.60;;;;;;5000437;28;20038;-68
2021/03/07 08:48:34;;;;;;;7.85;2.15;;;23.70;64.90;;;;;;5000746;28;20058;-70
2021/03/07 08:51:02;;;;;;;11.18;2.47;;;23.60;65.00;;;;;;5002017;28;20068;-69
2021/03/07 08:53:33;;;;;;;7.35;2.42;;;23.60;65.20;;;;;;5000668;28;20048;-70
2021/03/07 08:56:01;;;;;;;8.55;2.97;;;23.50;65.40;;;;;;5001665;28;20062;-68
2021/03/07 08:58:28;;;;;;;9.77;3.08;;;23.50;65.40;;;;;;5000359;28;20034;-68
2021/03/07 09:00:58;;;;;;;7.90;2.25;;;23.40;65.70;;;;;;5015995;28;20026;-67
2021/03/07 09:03:27;;;;;;;13.50;3.45;;;23.40;65.70;;;;;;5003473;28;20037;-67
2021/03/07 09:05:55;;;;;;;7.55;2.90;;;23.50;65.70;;;;;;5005424;28;20503;-68
2021/03/07 09:08:28;;;;;;;8.73;3.00;;;23.40;65.80;;;;;;5002708;28;20034;-67
2021/03/07 09:10:59;;;;;;;13.15;3.58;;;23.40;66.10;;;;;;5006521;28;20022;-69
2021/03/07 09:13:30;;;;;;;14.20;2.63;;;23.30;66.10;;;;;;5004266;28;20721;-68
2021/03/07 09:16:03;;;;;;;11.10;2.78;;;23.30;66.20;;;;;;5005577;28;20030;-69
2021/03/07 09:18:32;;;;;;;11.25;3.03;;;23.20;66.40;;;;;;5004422;28;20041;-70
2021/03/07 09:21:01;;;;;;;9.82;2.22;;;23.20;66.90;;;;;;5005445;28;20116;-69
2021/03/07 09:23:39;;;;;;;12.32;2.85;;;23.10;66.90;;;;;;5004444;28;20038;-70
2021/03/07 09:26:17;;;;;;;11.45;3.10;;;23.10;66.90;;;;;;5005119;28;20044;-68
2021/03/07 09:28:52;;;;;;;11.35;3.72;;;23.10;67.00;;;;;;5004286;28;20026;-68
2021/03/07 09:31:34;;;;;;;13.23;3.05;;;23.00;67.20;;;;;;5004715;28;20034;-67
2021/03/07 09:34:05;;;;;;;6.32;2.47;;;23.00;67.30;;;;;;5004573;28;20033;-68
2021/03/07 09:36:39;;;;;;;12.10;2.78;;;23.00;67.30;;;;;;5004543;28;20049;-67
2021/03/07 09:39:09;;;;;;;11.68;3.28;;;23.00;67.30;;;;;;5004025;28;20038;-70
2021/03/07 09:41:46;;;;;;;14.95;3.53;;;23.00;67.40;;;;;;5004931;28;20558;-68
2021/03/07 09:44:23;;;;;;;12.00;2.75;;;22.90;67.50;;;;;;5005028;28;20038;-68
2021/03/07 09:46:53;;;;;;;10.50;2.53;;;22.80;67.80;;;;;;5005448;28;20038;-70
2021/03/07 09:49:27;;;;;;;12.00;2.45;;;22.70;68.30;;;;;;5003407;28;20106;-69
2021/03/07 09:51:54;;;;;;;13.68;3.35;;;22.70;68.30;;;;;;5007386;28;20073;-71
2021/03/07 09:54:22;;;;;;;10.65;2.20;;;22.70;68.40;;;;;;5005040;28;20080;-67
2021/03/07 09:56:54;;;;;;;9.77;2.60;;;22.60;68.20;;;;;;5006695;28;20026;-68
2021/03/07 09:59:32;;;;;;;13.30;2.25;;;22.60;68.50;;;;;;5004058;28;20034;-68
2021/03/07 10:02:05;;;;;;;11.48;2.40;;;22.60;68.70;;;;;;5004386;28;20096;-69
2021/03/07 10:04:44;;;;;;;10.50;2.50;;;22.60;68.80;;;;;;5004019;28;20859;-68
2021/03/07 10:07:18;;;;;;;12.80;2.70;;;22.60;68.90;;;;;;5004308;28;20118;-69
2021/03/07 10:10:00;;;;;;;5.97;2.28;;;22.50;69.00;;;;;;5002504;28;20044;-68
2021/03/07 10:12:56;;;;;;;8.18;2.60;;;22.40;69.30;;;;;;5003048;28;20053;-68
2021/03/07 10:15:32;;;;;;;4.53;1.58;;;22.50;69.40;;;;;;5000695;28;20097;-69
2021/03/07 10:18:24;;;;;;;7.35;1.88;;;22.40;69.50;;;;;;5002554;28;20030;-68
2021/03/07 10:20:57;;;;;;;8.25;2.58;;;22.40;69.50;;;;;;5004818;28;20030;-68
2021/03/07 10:23:33;;;;;;;9.05;2.35;;;22.40;69.90;;;;;;5000852;28;20023;-69
2021/03/07 10:26:01;;;;;;;12.15;3.33;;;22.40;69.80;;;;;;5003789;28;20038;-68
2021/03/07 10:28:31;;;;;;;7.13;1.45;;;22.30;70.00;;;;;;5002097;28;20084;-71
2021/03/07 10:31:27;;;;;;;9.15;3.15;;;22.30;70.20;;;;;;5004190;28;20055;-70
2021/03/07 10:33:55;;;;;;;12.18;2.50;;;22.20;70.50;;;;;;4999823;28;20559;-69
2021/03/07 10:36:23;;;;;;;8.40;2.20;;;22.10;70.80;;;;;;5004074;28;20868;-68
2021/03/07 10:38:52;;;;;;;7.38;2.47;;;22.20;71.20;;;;;;5001757;28;20040;-69
2021/03/07 10:41:32;;;;;;;8.32;2.03;;;22.10;71.00;;;;;;5003029;28;20400;-68
2021/03/07 10:44:01;;;;;;;9.43;3.35;;;22.10;71.20;;;;;;5002770;28;21224;-70
2021/03/07 10:46:38;;;;;;;10.20;2.00;;;22.00;71.30;;;;;;5004276;28;20073;-69
2021/03/07 10:49:07;;;;;;;7.78;2.03;;;22.00;71.50;;;;;;5001983;28;20041;-70
2021/03/07 10:51:36;;;;;;;11.32;2.42;;;22.00;71.50;;;;;;5002549;28;21447;-68
2021/03/07 10:54:05;;;;;;;10.43;2.45;;;22.00;71.50;;;;;;5003133;28;20045;-68
2021/03/07 10:56:37;;;;;;;10.45;2.30;;;22.00;71.60;;;;;;5003972;28;20932;-70
2021/03/07 10:59:05;;;;;;;10.73;2.60;;;22.00;71.90;;;;;;5001840;28;20045;-67
2021/03/07 11:01:33;;;;;;;8.48;1.88;;;21.90;71.90;;;;;;5001805;28;20145;-69
2021/03/07 11:04:01;;;;;;;11.95;3.50;;;21.90;72.10;;;;;;5002490;28;20037;-70
2021/03/07 11:06:28;;;;;;;8.13;1.83;;;21.90;73.00;;;;;;5003262;28;20149;-65
2021/03/07 11:08:56;;;;;;;9.68;2.83;;;21.90;72.50;;;;;;5001747;28;20522;-70
2021/03/07 11:11:23;;;;;;;9.07;1.95;;;21.90;72.80;;;;;;5003752;28;20056;-68
2021/03/07 11:13:51;;;;;;;7.13;2.33;;;21.80;72.80;;;;;;5001993;28;20036;-71
2021/03/07 11:16:18;;;;;;;8.27;1.83;;;21.80;72.80;;;;;;5003408;28;20033;-70
2021/03/07 11:18:45;;;;;;;10.90;2.15;;;21.90;73.00;;;;;;5002508;28;20435;-69
2021/03/07 11:21:13;;;;;;;8.20;2.00;;;21.80;72.90;;;;;;5003943;28;20300;-67
2021/03/07 11:23:40;;;;;;;6.93;2.15;;;21.80;73.10;;;;;;5002184;28;20819;-68
2021/03/07 11:26:09;;;;;;;6.30;1.85;;;21.80;73.00;;;;;;5002503;28;20117;-69
2021/03/07 11:28:36;;;;;;;7.07;1.77;;;21.80;73.00;;;;;;5001652;28;20038;-70
2021/03/07 11:31:03;;;;;;;9.45;2.47;;;21.80;72.80;;;;;;5003400;28;20041;-69
2021/03/07 11:33:31;;;;;;;10.35;2.33;;;21.80;73.10;;;;;;5001993;28;20065;-67
2021/03/07 11:35:58;;;;;;;10.30;2.63;;;21.70;73.40;;;;;;5001894;28;20134;-70
2021/03/07 11:38:26;;;;;;;6.75;2.13;;;21.70;73.40;;;;;;5000500;28;20072;-67
2021/03/07 11:40:53;;;;;;;12.48;2.67;;;21.60;73.70;;;;;;5002818;28;20033;-70
2021/03/07 11:43:20;;;;;;;10.18;2.83;;;21.60;74.50;;;;;;5001151;28;20374;-68
2021/03/07 11:45:48;;;;;;;12.05;2.22;;;21.60;73.90;;;;;;5001525;28;20034;-66
2021/03/07 11:48:15;;;;;;;6.97;1.58;;;21.50;74.20;;;;;;5001747;28;20468;-67
2021/03/07 11:50:44;;;;;;;9.65;2.17;;;21.60;74.10;;;;;;5002019;28;20112;-70
2021/03/07 11:53:11;;;;;;;6.68;1.70;;;21.50;74.40;;;;;;4999906;28;20056;-67
2021/03/07 11:55:39;;;;;;;5.07;1.73;;;21.50;74.60;;;;;;5003512;28;20064;-67
2021/03/07 11:58:06;;;;;;;9.82;3.28;;;21.50;74.30;;;;;;5000129;28;20821;-67
2021/03/07 12:00:33;;;;;;;8.27;2.28;;;21.50;74.60;;;;;;5001316;28;20044;-67
2021/03/07 12:03:01;;;;;;;5.65;1.83;;;21.50;74.70;;;;;;4999981;28;20034;-67
2021/03/07 12:05:28;;;;;;;9.90;2.08;;;21.40;74.60;;;;;;5000757;28;20034;-68
2021/03/07 12:07:56;;;;;;;11.70;2.60;;;21.40;74.50;;;;;;5001041;28;20034;-68
2021/03/07 12:10:25;;;;;;;9.77;2.28;;;21.40;75.10;;;;;;5001215;28;20022;-70
2021/03/07 12:12:53;;;;;;;7.47;2.38;;;21.40;75.10;;;;;;5000755;28;20049;-67
2021/03/07 12:15:21;;;;;;;7.88;2.10;;;21.40;75.10;;;;;;4999110;28;20034;-67
2021/03/07 12:17:48;;;;;;;7.90;1.95;;;21.30;75.30;;;;;;4999814;28;20034;-68
2021/03/07 12:20:16;;;;;;;8.02;2.08;;;21.30;75.50;;;;;;5002142;28;20056;-66
2021/03/07 12:22:48;;;;;;;7.07;2.47;;;21.30;75.20;;;;;;4999232;28;20041;-67
2021/03/07 12:25:16;;;;;;;5.00;1.60;;;21.30;75.40;;;;;;5003064;28;20030;-68
2021/03/07 12:27:43;;;;;;;6.55;2.08;;;21.30;75.50;;;;;;4999239;28;20448;-68
2021/03/07 12:30:12;;;;;;;8.35;2.10;;;21.30;75.60;;;;;;5000146;28;20093;-68
2021/03/07 12:32:39;;;;;;;8.98;1.98;;;21.20;75.60;;;;;;4999129;28;20041;-68
2021/03/07 12:35:07;;;;;;;8.05;2.28;;;21.20;75.70;;;;;;5002697;28;20037;-69
2021/03/07 12:37:35;;;;;;;8.77;2.08;;;21.10;75.80;;;;;;5000356;28;20030;-67
2021/03/07 12:40:05;;;;;;;6.63;1.73;;;21.00;76.20;;;;;;4997978;28;20038;-71
2021/03/07 12:42:32;;;;;;;6.07;2.42;;;21.00;76.50;;;;;;4997603;28;20038;-68
2021/03/07 12:45:00;;;;;;;6.50;2.13;;;21.00;76.80;;;;;;5000803;28;20042;-67
2021/03/07 12:47:27;;;;;;;4.47;1.30;;;21.00;76.70;;;;;;5000680;28;20026;-68
2021/03/07 12:49:55;;;;;;;8.82;2.13;;;21.00;76.80;;;;;;5000263;28;20099;-66
2021/03/07 12:52:22;;;;;;;5.40;1.50;;;21.00;76.70;;;;;;4998879;28;20046;-70
2021/03/07 12:54:50;;;;;;;6.20;1.80;;;20.90;77.10;;;;;;5001887;28;20540;-67
2021/03/07 12:57:18;;;;;;;7.07;2.10;;;20.90;76.90;;;;;;5002389;28;20694;-70
2021/03/07 12:59:46;;;;;;;8.35;1.70;;;20.90;77.70;;;;;;4999355;28;20125;-69
2021/03/07 13:02:13;;;;;;;7.93;2.00;;;20.90;77.40;;;;;;4999198;28;20069;-67
2021/03/07 13:04:41;;;;;;;8.43;2.83;;;20.90;77.30;;;;;;5000915;28;20025;-71